createdAt,value
2023-11-01T00:01:36.381Z,16.62
2023-11-01T00:03:38.828Z,16.11
2023-11-01T00:05:40.731Z,15.93
2023-11-01T00:07:42.556Z,15.86
2023-11-01T00:09:44.481Z,15.70
2023-11-01T00:11:49.494Z,15.79
2023-11-01T00:13:51.708Z,15.94
2023-11-01T00:15:53.455Z,16.12
2023-11-01T00:17:56.708Z,16.26
2023-11-01T00:19:58.557Z,16.35
2023-11-01T00:22:00.147Z,16.36
2023-11-01T00:24:02.147Z,16.39
2023-11-01T00:26:04.006Z,16.35
2023-11-01T00:28:05.675Z,16.24
2023-11-01T00:30:08.360Z,16.12
2023-11-01T00:32:10.424Z,15.96
2023-11-01T00:34:12.208Z,16.00
2023-11-01T00:36:14.013Z,15.96
2023-11-01T00:38:20.633Z,15.85
2023-11-01T00:40:22.286Z,15.85
2023-11-01T00:42:23.953Z,15.71
2023-11-01T00:44:25.739Z,15.60
2023-11-01T00:46:27.504Z,15.54
2023-11-01T00:48:29.561Z,15.52
2023-11-01T00:50:31.966Z,15.52
2023-11-01T00:52:33.654Z,15.50
2023-11-01T00:54:35.259Z,15.56
2023-11-01T00:56:37.205Z,15.43
2023-11-01T00:58:39.236Z,15.23
2023-11-01T01:00:42.157Z,15.31
2023-11-01T01:02:45.033Z,15.19
2023-11-01T01:04:48.080Z,15.09
2023-11-01T01:06:49.768Z,14.89
2023-11-01T01:08:52.541Z,14.83
2023-11-01T01:10:54.517Z,14.71
2023-11-01T01:12:56.475Z,14.77
2023-11-01T01:14:58.788Z,14.57
2023-11-01T01:17:00.663Z,14.55
2023-11-01T01:19:02.678Z,14.52
2023-11-01T01:21:04.563Z,14.51
2023-11-01T01:23:06.324Z,14.60
2023-11-01T01:25:08.369Z,14.71
2023-11-01T01:27:10.059Z,14.69
2023-11-01T01:29:11.749Z,14.79
2023-11-01T01:31:15.261Z,14.86
2023-11-01T01:33:17.077Z,14.99
2023-11-01T01:35:19.474Z,15.04
2023-11-01T01:37:21.082Z,15.15
2023-11-01T01:39:24.069Z,15.19
2023-11-01T01:41:25.730Z,15.22
2023-11-01T01:43:28.887Z,15.33
2023-11-01T01:45:30.688Z,15.38
2023-11-01T01:47:34.619Z,15.47
2023-11-01T01:49:43.331Z,15.44
2023-11-01T01:51:47.405Z,15.22
2023-11-01T01:53:49.753Z,15.07
2023-11-01T01:55:52.205Z,14.93
2023-11-01T01:57:53.985Z,14.90
2023-11-01T01:59:56.479Z,14.98
2023-11-01T02:01:58.525Z,14.97
2023-11-01T02:04:00.226Z,14.90
2023-11-01T02:06:03.833Z,14.76
2023-11-01T02:08:05.796Z,14.63
2023-11-01T02:10:16.301Z,14.54
2023-11-01T02:12:18.348Z,14.66
2023-11-01T02:14:22.638Z,14.77
2023-11-01T02:16:24.630Z,14.90
2023-11-01T02:18:26.260Z,14.65
2023-11-01T02:20:28.307Z,14.60
2023-11-01T02:22:30.358Z,14.52
2023-11-01T02:24:32.162Z,14.47
2023-11-01T02:26:34.087Z,14.32
2023-11-01T02:28:36.302Z,14.15
2023-11-01T02:30:39.352Z,14.01
2023-11-01T02:32:41.288Z,14.03
2023-11-01T02:34:43.464Z,14.10
2023-11-01T02:36:45.297Z,14.27
2023-11-01T02:38:47.038Z,14.44
2023-11-01T02:40:49.300Z,14.57
2023-11-01T02:42:56.445Z,14.67
2023-11-01T02:44:58.631Z,14.75
2023-11-01T02:47:00.316Z,14.86
2023-11-01T02:49:05.323Z,14.98
2023-11-01T02:51:07.147Z,15.07
2023-11-01T02:53:08.863Z,15.15
2023-11-01T02:55:12.719Z,15.21
2023-11-01T02:57:14.362Z,15.26
2023-11-01T02:59:16.630Z,15.30
2023-11-01T03:01:18.792Z,15.35
2023-11-01T03:03:20.536Z,15.39
2023-11-01T03:05:23.953Z,15.36
2023-11-01T03:07:25.817Z,15.39
2023-11-01T03:09:27.487Z,15.39
2023-11-01T03:11:29.266Z,15.40
2023-11-01T03:13:31.476Z,15.43
2023-11-01T03:15:33.203Z,15.45
2023-11-01T03:17:36.533Z,15.49
2023-11-01T03:19:38.563Z,15.53
2023-11-01T03:21:42.632Z,15.56
2023-11-01T03:23:44.401Z,15.59
2023-11-01T03:25:46.179Z,15.61
2023-11-01T03:27:47.871Z,15.50
2023-11-01T03:29:49.705Z,15.45
2023-11-01T03:31:51.644Z,15.47
2023-11-01T03:33:53.433Z,15.52
2023-11-01T03:35:55.470Z,15.53
2023-11-01T03:37:57.159Z,15.51
2023-11-01T03:39:58.864Z,15.51
2023-11-01T03:42:06.001Z,15.45
2023-11-01T03:44:08.207Z,15.41
2023-11-01T03:46:10.128Z,15.39
2023-11-01T03:48:12.072Z,15.35
2023-11-01T03:50:13.911Z,15.37
2023-11-01T03:52:16.021Z,15.30
2023-11-01T03:54:17.911Z,15.24
2023-11-01T03:56:21.971Z,15.14
2023-11-01T03:58:23.841Z,15.00
2023-11-01T04:00:25.533Z,14.97
2023-11-01T04:02:27.324Z,15.01
2023-11-01T04:04:29.434Z,15.05
2023-11-01T04:06:33.503Z,15.05
2023-11-01T04:08:35.192Z,15.07
2023-11-01T04:10:36.881Z,14.99
2023-11-01T04:12:38.752Z,14.86
2023-11-01T04:14:40.869Z,14.72
2023-11-01T04:16:42.726Z,14.62
2023-11-01T04:18:44.595Z,14.64
2023-11-01T04:20:46.473Z,14.68
2023-11-01T04:22:48.213Z,14.72
2023-11-01T04:24:50.646Z,14.79
2023-11-01T04:26:53.686Z,14.82
2023-11-01T04:28:55.539Z,14.75
2023-11-01T04:30:57.847Z,14.71
2023-11-01T04:33:00.963Z,14.68
2023-11-01T04:35:04.002Z,14.68
2023-11-01T04:37:05.874Z,14.72
2023-11-01T04:39:07.639Z,14.73
2023-11-01T04:41:12.580Z,14.80
2023-11-01T04:43:15.907Z,14.83
2023-11-01T04:45:17.757Z,14.73
2023-11-01T04:47:19.583Z,14.67
2023-11-01T04:49:25.204Z,14.67
2023-11-01T04:51:26.896Z,14.68
2023-11-01T04:53:28.779Z,14.73
2023-11-01T04:55:31.008Z,14.73
2023-11-01T04:57:37.394Z,14.71
2023-11-01T04:59:39.115Z,14.71
2023-11-01T05:01:40.886Z,14.71
2023-11-01T05:03:42.753Z,14.69
2023-11-01T05:05:44.750Z,14.69
2023-11-01T05:07:46.694Z,14.67
2023-11-01T05:09:48.776Z,14.69
2023-11-01T05:11:51.681Z,14.70
2023-11-01T05:13:56.151Z,14.76
2023-11-01T05:15:57.816Z,14.73
2023-11-01T05:18:00.960Z,14.76
2023-11-01T05:20:05.283Z,14.74
2023-11-01T05:22:07.424Z,14.65
2023-11-01T05:24:13.511Z,14.65
2023-11-01T05:26:17.916Z,14.69
2023-11-01T05:28:19.880Z,14.79
2023-11-01T05:30:22.276Z,14.86
2023-11-01T05:32:23.943Z,14.95
2023-11-01T05:34:25.703Z,15.02
2023-11-01T05:36:29.448Z,15.08
2023-11-01T05:38:31.202Z,15.10
2023-11-01T05:40:32.904Z,15.09
2023-11-01T05:42:34.605Z,15.14
2023-11-01T05:44:36.516Z,14.99
2023-11-01T05:46:40.855Z,14.97
2023-11-01T05:48:43.589Z,14.91
2023-11-01T05:50:45.918Z,14.86
2023-11-01T05:52:47.689Z,14.74
2023-11-01T05:54:51.660Z,14.81
2023-11-01T05:56:55.719Z,14.86
2023-11-01T05:58:57.347Z,14.96
2023-11-01T06:00:59.102Z,15.07
2023-11-01T06:03:01.432Z,15.19
2023-11-01T06:05:05.395Z,15.29
2023-11-01T06:07:07.664Z,15.40
2023-11-01T06:09:09.851Z,15.52
2023-11-01T06:11:11.642Z,15.62
2023-11-01T06:13:13.380Z,15.73
2023-11-01T06:15:16.256Z,15.81
2023-11-01T06:17:17.970Z,15.88
2023-11-01T06:19:20.031Z,15.95
2023-11-01T06:21:21.731Z,16.04
2023-11-01T06:23:23.452Z,16.12
2023-11-01T06:25:25.450Z,16.17
2023-11-01T06:27:29.656Z,16.22
2023-11-01T06:29:32.400Z,16.28
2023-11-01T06:31:35.828Z,16.34
2023-11-01T06:33:39.700Z,16.41
2023-11-01T06:35:41.524Z,16.48
2023-11-01T06:37:43.609Z,16.48
2023-11-01T06:39:45.374Z,16.47
2023-11-01T06:41:47.327Z,16.36
2023-11-01T06:43:49.469Z,16.35
2023-11-01T06:45:51.755Z,16.37
2023-11-01T06:47:53.624Z,16.27
2023-11-01T06:49:57.892Z,15.96
2023-11-01T06:52:02.158Z,15.53
2023-11-01T06:54:04.037Z,15.65
2023-11-01T06:56:06.335Z,15.46
2023-11-01T06:58:08.059Z,15.63
2023-11-01T07:00:10.252Z,15.55
2023-11-01T07:02:11.892Z,15.48
2023-11-01T07:04:16.114Z,15.59
2023-11-01T07:06:22.028Z,15.81
2023-11-01T07:08:24.093Z,15.99
2023-11-01T07:10:25.996Z,16.11
2023-11-01T07:12:28.971Z,16.25
2023-11-01T07:14:31.148Z,16.37
2023-11-01T07:16:33.160Z,16.28
2023-11-01T07:18:42.295Z,16.25
2023-11-01T07:20:45.027Z,16.30
2023-11-01T07:22:46.857Z,16.48
2023-11-01T07:24:51.013Z,16.59
2023-11-01T07:26:52.711Z,16.66
2023-11-01T07:28:55.919Z,16.51
2023-11-01T07:30:59.117Z,16.23
2023-11-01T07:33:01.395Z,16.12
2023-11-01T07:35:05.045Z,16.21
2023-11-01T07:37:06.894Z,16.28
2023-11-01T07:39:09.284Z,16.44
2023-11-01T07:41:11.146Z,16.55
2023-11-01T07:43:12.891Z,16.74
2023-11-01T07:45:14.766Z,16.83
2023-11-01T07:47:18.206Z,16.80
2023-11-01T07:49:19.839Z,16.77
2023-11-01T07:51:22.417Z,16.84
2023-11-01T07:53:25.441Z,16.89
2023-11-01T07:55:27.160Z,16.98
2023-11-01T07:57:29.974Z,17.04
2023-11-01T07:59:31.728Z,17.18
2023-11-01T08:01:33.874Z,17.27
2023-11-01T08:03:38.537Z,17.33
2023-11-01T08:05:40.434Z,17.41
2023-11-01T08:07:42.072Z,17.48
2023-11-01T08:09:50.614Z,17.56
2023-11-01T08:11:52.397Z,17.59
2023-11-01T08:13:54.074Z,17.56
2023-11-01T08:15:55.761Z,17.52
2023-11-01T08:17:57.693Z,17.69
2023-11-01T08:20:02.529Z,17.94
2023-11-01T08:22:07.054Z,18.20
2023-11-01T08:24:09.202Z,18.24
2023-11-01T08:26:17.689Z,18.18
2023-11-01T08:28:19.896Z,18.24
2023-11-01T08:30:22.231Z,18.24
2023-11-01T08:32:24.403Z,18.13
2023-11-01T08:34:26.480Z,17.02
2023-11-01T08:36:28.188Z,16.52
2023-11-01T08:38:30.366Z,16.22
2023-11-01T08:40:32.167Z,16.22
2023-11-01T08:42:35.304Z,16.24
2023-11-01T08:44:37.090Z,15.97
2023-11-01T08:46:38.891Z,15.89
2023-11-01T08:48:40.757Z,15.81
2023-11-01T08:50:42.677Z,15.74
2023-11-01T08:52:45.899Z,15.68
2023-11-01T08:54:48.946Z,15.77
2023-11-01T08:56:52.709Z,15.85
2023-11-01T08:58:54.406Z,15.96
2023-11-01T09:00:58.553Z,16.17
2023-11-01T09:03:01.687Z,16.41
2023-11-01T09:05:03.717Z,16.70
2023-11-01T09:07:05.599Z,17.04
2023-11-01T09:09:07.812Z,17.35
2023-11-01T09:11:09.528Z,17.67
2023-11-01T09:13:11.598Z,17.73
2023-11-01T09:15:13.378Z,17.77
2023-11-01T09:17:15.728Z,17.78
2023-11-01T09:19:17.542Z,16.92
2023-11-01T09:21:20.561Z,16.38
2023-11-01T09:23:23.544Z,15.79
2023-11-01T09:25:28.944Z,15.00
2023-11-01T09:27:30.625Z,15.02
2023-11-01T09:29:32.294Z,15.18
2023-11-01T09:31:37.245Z,15.17
2023-11-01T09:33:39.280Z,14.69
2023-11-01T09:35:41.214Z,14.29
2023-11-01T09:37:43.371Z,14.27
2023-11-01T09:39:45.356Z,14.43
2023-11-01T09:41:52.097Z,14.58
2023-11-01T09:43:59.665Z,14.69
2023-11-01T09:46:06.800Z,14.93
2023-11-01T09:48:09.576Z,14.90
2023-11-01T09:50:13.672Z,14.58
2023-11-01T09:52:15.600Z,14.59
2023-11-01T09:54:17.190Z,14.96
2023-11-01T09:56:21.360Z,15.01
2023-11-01T09:58:24.376Z,15.09
2023-11-01T10:00:30.228Z,14.98
2023-11-01T10:02:32.057Z,15.02
2023-11-01T10:04:35.841Z,15.32
2023-11-01T10:06:38.013Z,15.60
2023-11-01T10:08:40.284Z,15.59
2023-11-01T10:10:42.766Z,15.89
2023-11-01T10:12:47.219Z,16.01
2023-11-01T10:14:49.386Z,15.77
2023-11-01T10:16:51.128Z,15.95
2023-11-01T10:18:53.959Z,16.21
2023-11-01T10:20:58.673Z,16.60
2023-11-01T10:23:00.509Z,16.49
2023-11-01T10:25:04.495Z,16.46
2023-11-01T10:27:08.001Z,16.28
2023-11-01T10:29:09.706Z,16.13
2023-11-01T10:31:15.812Z,16.12
2023-11-01T10:33:20.441Z,16.39
2023-11-01T10:35:22.280Z,16.29
2023-11-01T10:37:31.663Z,16.11
2023-11-01T10:39:38.865Z,16.12
2023-11-01T10:41:40.629Z,16.14
2023-11-01T10:43:42.374Z,15.90
2023-11-01T10:45:44.511Z,15.87
2023-11-01T10:47:49.287Z,16.08
2023-11-01T10:49:53.293Z,16.01
2023-11-01T10:51:56.749Z,16.07
2023-11-01T10:54:03.135Z,16.24
2023-11-01T10:56:08.747Z,16.69
2023-11-01T10:58:17.797Z,17.06
2023-11-01T11:00:25.710Z,16.93
2023-11-01T11:02:34.384Z,17.10
2023-11-01T11:04:53.176Z,16.74
2023-11-01T11:07:36.177Z,16.75
2023-11-01T11:09:39.396Z,16.80
2023-11-01T11:11:41.262Z,16.42
2023-11-01T11:13:44.006Z,16.68
2023-11-01T11:15:49.400Z,16.76
2023-11-01T11:18:07.703Z,17.03
2023-11-01T11:20:14.088Z,17.39
2023-11-01T11:22:17.162Z,17.63
2023-11-01T11:24:56.881Z,17.75
2023-11-01T11:26:58.686Z,16.88
2023-11-01T11:29:00.899Z,16.91
2023-11-01T11:31:06.674Z,16.85
2023-11-01T11:33:08.624Z,16.67
2023-11-01T11:35:22.432Z,16.81
2023-11-01T11:37:30.190Z,17.02
2023-11-01T11:40:08.744Z,17.05
2023-11-01T11:42:59.257Z,16.99
2023-11-01T11:45:02.535Z,17.28
2023-11-01T11:47:32.971Z,17.09
2023-11-01T11:49:38.967Z,17.20
2023-11-01T11:51:51.119Z,17.47
2023-11-01T11:53:53.546Z,17.74
2023-11-01T11:55:55.509Z,18.00
2023-11-01T11:57:57.223Z,17.89
2023-11-01T12:00:09.110Z,17.94
2023-11-01T12:02:19.890Z,17.52
2023-11-01T12:04:22.722Z,17.87
2023-11-01T12:06:25.691Z,17.76
2023-11-01T12:08:37.727Z,17.37
2023-11-01T12:10:50.651Z,17.44
2023-11-01T12:12:55.632Z,17.13
2023-11-01T12:14:59.653Z,17.12
2023-11-01T12:17:03.359Z,17.22
2023-11-01T12:19:12.140Z,17.05
2023-11-01T12:21:14.079Z,17.07
2023-11-01T12:23:15.965Z,17.32
2023-11-01T12:25:24.584Z,17.40
2023-11-01T12:27:31.111Z,17.13
2023-11-01T12:29:43.656Z,17.13
2023-11-01T12:32:00.145Z,17.22
2023-11-01T12:34:15.517Z,17.11
2023-11-01T12:36:29.049Z,17.31
2023-11-01T12:38:34.456Z,17.37
2023-11-01T12:40:38.806Z,17.18
2023-11-01T12:42:42.849Z,16.93
2023-11-01T12:44:44.670Z,16.98
2023-11-01T12:46:46.940Z,16.77
2023-11-01T12:48:49.945Z,16.90
2023-11-01T12:50:52.772Z,17.02
2023-11-01T12:52:55.420Z,17.01
2023-11-01T12:54:57.144Z,16.96
2023-11-01T12:56:59.321Z,16.98
2023-11-01T12:59:19.978Z,16.80
2023-11-01T13:01:22.861Z,16.80
2023-11-01T13:03:24.829Z,16.82
2023-11-01T13:05:27.878Z,16.74
2023-11-01T13:07:32.318Z,16.83
2023-11-01T13:09:34.802Z,16.73
2023-11-01T13:11:36.543Z,16.77
2023-11-01T13:13:38.546Z,16.97
2023-11-01T13:15:40.311Z,17.12
2023-11-01T13:17:42.327Z,17.15
2023-11-01T13:19:44.158Z,17.15
2023-11-01T13:21:46.476Z,17.33
2023-11-01T13:23:48.843Z,17.35
2023-11-01T13:25:50.672Z,17.10
2023-11-01T13:27:52.350Z,17.07
2023-11-01T13:29:54.237Z,17.17
2023-11-01T13:31:57.561Z,17.30
2023-11-01T13:33:59.242Z,17.49
2023-11-01T13:36:02.438Z,17.70
2023-11-01T13:38:04.255Z,17.79
2023-11-01T13:40:06.608Z,17.89
2023-11-01T13:42:08.779Z,17.97
2023-11-01T13:44:11.153Z,17.97
2023-11-01T13:46:14.549Z,17.99
2023-11-01T13:48:16.527Z,18.03
2023-11-01T13:50:18.674Z,18.09
2023-11-01T13:52:21.531Z,18.18
2023-11-01T13:54:23.606Z,17.78
2023-11-01T13:56:25.448Z,17.76
2023-11-01T13:58:27.983Z,17.81
2023-11-01T14:00:30.799Z,17.91
2023-11-01T14:02:33.863Z,18.10
2023-11-01T14:04:41.134Z,18.20
2023-11-01T14:06:42.907Z,18.18
2023-11-01T14:08:45.489Z,17.67
2023-11-01T14:10:49.334Z,17.18
2023-11-01T14:12:52.166Z,17.36
2023-11-01T14:14:53.834Z,17.42
2023-11-01T14:16:56.083Z,17.58
2023-11-01T14:18:59.951Z,17.39
2023-11-01T14:21:04.231Z,17.39
2023-11-01T14:23:05.923Z,17.12
2023-11-01T14:25:08.075Z,17.01
2023-11-01T14:27:12.311Z,16.93
2023-11-01T14:29:14.191Z,17.14
2023-11-01T14:31:20.939Z,17.30
2023-11-01T14:33:23.533Z,17.44
2023-11-01T14:35:25.701Z,17.56
2023-11-01T14:37:27.524Z,17.61
2023-11-01T14:39:29.166Z,17.64
2023-11-01T14:41:32.650Z,17.71
2023-11-01T14:43:34.654Z,17.76
2023-11-01T14:45:36.929Z,17.80
2023-11-01T14:47:38.795Z,17.78
2023-11-01T14:49:40.499Z,17.76
2023-11-01T14:51:43.334Z,17.81
2023-11-01T14:53:46.459Z,17.82
2023-11-01T14:55:48.457Z,17.77
2023-11-01T14:57:50.175Z,17.72
2023-11-01T14:59:52.340Z,17.66
2023-11-01T15:01:58.287Z,17.53
2023-11-01T15:04:00.159Z,17.49
2023-11-01T15:06:02.003Z,17.38
2023-11-01T15:08:03.876Z,17.34
2023-11-01T15:10:06.440Z,17.33
2023-11-01T15:12:08.464Z,17.30
2023-11-01T15:14:11.865Z,17.25
2023-11-01T15:16:15.845Z,17.16
2023-11-01T15:18:17.677Z,17.12
2023-11-01T15:20:19.415Z,17.12
2023-11-01T15:22:23.257Z,17.11
2023-11-01T15:24:29.540Z,17.08
2023-11-01T15:26:35.185Z,17.06
2023-11-01T15:28:36.969Z,16.96
2023-11-01T15:30:39.195Z,16.92
2023-11-01T15:32:41.394Z,16.85
2023-11-01T15:34:44.321Z,16.79
2023-11-01T15:36:48.962Z,16.76
2023-11-01T15:38:51.207Z,16.68
2023-11-01T15:40:54.082Z,16.54
2023-11-01T15:42:55.983Z,16.43
2023-11-01T15:44:58.165Z,16.37
2023-11-01T15:46:59.920Z,16.33
2023-11-01T15:49:02.627Z,16.26
2023-11-01T15:51:04.799Z,16.22
2023-11-01T15:53:06.508Z,16.20
2023-11-01T15:55:09.775Z,16.24
2023-11-01T15:57:14.165Z,16.25
2023-11-01T15:59:16.535Z,16.26
2023-11-01T16:01:21.449Z,16.20
2023-11-01T16:03:23.202Z,16.21
2023-11-01T16:05:26.205Z,16.13
2023-11-01T16:07:30.535Z,16.12
2023-11-01T16:09:35.352Z,16.13
2023-11-01T16:11:38.404Z,16.15
2023-11-01T16:13:42.315Z,16.18
2023-11-01T16:15:44.484Z,16.16
2023-11-01T16:17:46.777Z,16.17
2023-11-01T16:19:48.917Z,16.18
2023-11-01T16:21:50.872Z,16.21
2023-11-01T16:23:55.975Z,16.21
2023-11-01T16:25:57.991Z,16.13
2023-11-01T16:28:00.126Z,16.04
2023-11-01T16:30:02.358Z,15.96
2023-11-01T16:32:04.809Z,15.94
2023-11-01T16:34:06.779Z,15.94
2023-11-01T16:36:08.969Z,15.94
2023-11-01T16:38:11.137Z,15.91
2023-11-01T16:40:13.695Z,15.93
2023-11-01T16:42:17.297Z,15.92
2023-11-01T16:44:19.123Z,15.92
2023-11-01T16:46:21.051Z,15.88
2023-11-01T16:48:22.839Z,15.82
2023-11-01T16:50:24.716Z,15.76
2023-11-01T16:52:26.822Z,15.74
2023-11-01T16:54:29.358Z,15.67
2023-11-01T16:56:31.977Z,15.57
2023-11-01T16:58:33.698Z,15.53
2023-11-01T17:00:38.019Z,15.51
2023-11-01T17:02:47.892Z,15.45
2023-11-01T17:04:53.026Z,15.45
2023-11-01T17:06:55.184Z,15.47
2023-11-01T17:08:56.988Z,15.46
2023-11-01T17:10:58.905Z,15.48
2023-11-01T17:13:01.552Z,15.47
2023-11-01T17:15:05.304Z,15.40
2023-11-01T17:17:09.227Z,15.42
2023-11-01T17:19:11.088Z,15.44
2023-11-01T17:21:15.179Z,15.46
2023-11-01T17:23:16.835Z,15.49
2023-11-01T17:25:46.588Z,15.53
2023-11-01T17:27:48.255Z,15.55
2023-11-01T17:29:51.787Z,15.59
2023-11-01T17:31:53.736Z,15.61
2023-11-01T17:33:56.053Z,15.62
2023-11-01T17:35:57.752Z,15.65
2023-11-01T17:38:21.239Z,15.65
2023-11-01T17:40:23.436Z,15.64
2023-11-01T17:42:25.088Z,15.64
2023-11-01T17:44:32.378Z,15.62
2023-11-01T17:46:34.182Z,15.62
2023-11-01T17:48:36.019Z,15.63
2023-11-01T17:50:37.864Z,15.63
2023-11-01T17:52:42.586Z,15.64
2023-11-01T17:54:44.200Z,15.63
2023-11-01T17:56:46.373Z,15.60
2023-11-01T17:58:55.822Z,15.58
2023-11-01T18:00:57.700Z,15.57
2023-11-01T18:03:18.065Z,15.52
2023-11-01T18:05:36.801Z,15.48
2023-11-01T18:07:42.329Z,15.49
2023-11-01T18:09:44.158Z,15.50
2023-11-01T18:11:46.497Z,15.49
2023-11-01T18:13:48.311Z,15.50
2023-11-01T18:15:52.710Z,15.53
2023-11-01T18:17:55.552Z,15.54
2023-11-01T18:19:58.321Z,15.55
2023-11-01T18:22:00.158Z,15.54
2023-11-01T18:24:13.609Z,15.52
2023-11-01T18:26:22.386Z,15.48
2023-11-01T18:28:25.497Z,15.45
2023-11-01T18:30:28.435Z,15.41
2023-11-01T18:32:30.202Z,15.43
2023-11-01T18:34:37.571Z,15.41
2023-11-01T18:36:48.682Z,15.35
2023-11-01T18:38:58.642Z,15.33
2023-11-01T18:41:04.109Z,15.34
2023-11-01T18:43:06.363Z,15.33
2023-11-01T18:45:13.990Z,15.29
2023-11-01T18:47:18.450Z,15.29
2023-11-01T18:50:01.700Z,15.29
2023-11-01T18:52:08.336Z,15.26
2023-11-01T18:54:10.646Z,15.24
2023-11-01T18:56:14.152Z,15.21
2023-11-01T18:58:15.878Z,15.20
2023-11-01T19:00:29.629Z,15.20
2023-11-01T19:02:39.559Z,15.18
2023-11-01T19:04:41.279Z,15.15
2023-11-01T19:06:44.876Z,15.13
2023-11-01T19:08:46.920Z,15.04
2023-11-01T19:10:50.766Z,15.01
2023-11-01T19:12:56.275Z,14.99
2023-11-01T19:14:58.868Z,14.83
2023-11-01T19:17:01.616Z,14.78
2023-11-01T19:19:03.749Z,14.76
2023-11-01T19:21:06.017Z,14.75
2023-11-01T19:23:08.056Z,14.78
2023-11-01T19:25:11.224Z,14.80
2023-11-01T19:27:18.424Z,14.81
2023-11-01T19:29:26.540Z,14.80
2023-11-01T19:31:31.281Z,14.77
2023-11-01T19:33:34.197Z,14.71
2023-11-01T19:35:36.556Z,14.64
2023-11-01T19:37:41.814Z,14.61
2023-11-01T19:39:45.050Z,14.59
2023-11-01T19:41:47.164Z,14.56
2023-11-01T19:43:50.131Z,14.44
2023-11-01T19:45:54.266Z,14.34
2023-11-01T19:47:56.430Z,14.33
2023-11-01T19:49:58.927Z,14.37
2023-11-01T19:52:00.674Z,14.41
2023-11-01T19:54:04.221Z,14.45
2023-11-01T19:56:06.908Z,14.45
2023-11-01T19:58:08.761Z,14.46
2023-11-01T20:00:13.002Z,14.43
2023-11-01T20:02:15.311Z,14.36
2023-11-01T20:04:17.983Z,14.29
2023-11-01T20:06:21.233Z,14.33
2023-11-01T20:08:22.939Z,14.31
2023-11-01T20:10:26.479Z,14.33
2023-11-01T20:12:31.351Z,14.29
2023-11-01T20:14:34.664Z,14.14
2023-11-01T20:16:38.524Z,14.11
2023-11-01T20:18:40.368Z,13.86
2023-11-01T20:20:44.784Z,13.58
2023-11-01T20:22:46.599Z,13.49
2023-11-01T20:24:48.822Z,13.56
2023-11-01T20:26:51.417Z,13.69
2023-11-01T20:28:54.137Z,13.79
2023-11-01T20:30:56.342Z,13.89
2023-11-01T20:32:58.319Z,13.95
2023-11-01T20:35:01.352Z,14.00
2023-11-01T20:37:04.089Z,13.98
2023-11-01T20:39:06.735Z,13.90
2023-11-01T20:41:11.045Z,13.86
2023-11-01T20:43:12.739Z,13.90
2023-11-01T20:45:15.398Z,13.87
2023-11-01T20:47:19.228Z,13.90
2023-11-01T20:49:20.907Z,13.95
2023-11-01T20:51:23.408Z,14.00
2023-11-01T20:53:25.138Z,14.03
2023-11-01T20:55:29.774Z,13.99
2023-11-01T20:57:34.440Z,13.90
2023-11-01T20:59:37.625Z,13.85
2023-11-01T21:01:40.666Z,13.88
2023-11-01T21:03:42.521Z,13.90
2023-11-01T21:05:44.289Z,13.87
2023-11-01T21:07:46.843Z,13.92
2023-11-01T21:09:48.930Z,13.92
2023-11-01T21:11:50.699Z,13.92
2023-11-01T21:13:53.456Z,13.91
2023-11-01T21:15:57.698Z,13.95
2023-11-01T21:17:59.570Z,13.97
2023-11-01T21:20:01.429Z,13.96
2023-11-01T21:22:03.306Z,13.99
2023-11-01T21:24:05.707Z,14.02
2023-11-01T21:26:10.551Z,14.04
2023-11-01T21:28:12.561Z,14.04
2023-11-01T21:30:14.845Z,14.03
2023-11-01T21:32:17.148Z,14.04
2023-11-01T21:34:19.133Z,14.04
2023-11-01T21:36:21.122Z,14.01
2023-11-01T21:38:22.802Z,13.98
2023-11-01T21:40:24.811Z,13.90
2023-11-01T21:42:27.122Z,13.92
2023-11-01T21:44:40.041Z,13.90
2023-11-01T21:46:42.853Z,13.92
2023-11-01T21:48:45.280Z,13.94
2023-11-01T21:50:58.649Z,13.85
2023-11-01T21:53:00.539Z,13.81
2023-11-01T21:55:11.423Z,13.80
2023-11-01T21:57:13.662Z,13.85
2023-11-01T21:59:17.654Z,13.88
2023-11-01T22:01:22.422Z,13.93
2023-11-01T22:03:38.111Z,13.94
2023-11-01T22:05:40.022Z,13.84
2023-11-01T22:07:41.837Z,13.79
2023-11-01T22:09:47.932Z,13.74
2023-11-01T22:11:52.123Z,13.67
2023-11-01T22:13:54.008Z,13.53
2023-11-01T22:15:55.822Z,13.45
2023-11-01T22:17:57.773Z,13.42
2023-11-01T22:19:59.728Z,13.44
2023-11-01T22:22:06.436Z,13.48
2023-11-01T22:24:09.935Z,13.49
2023-11-01T22:26:18.641Z,13.49
2023-11-01T22:28:20.238Z,13.51
2023-11-01T22:30:21.995Z,13.47
2023-11-01T22:32:24.806Z,13.40
2023-11-01T22:34:30.227Z,13.36
2023-11-01T22:36:37.218Z,13.29
2023-11-01T22:38:39.227Z,13.10
2023-11-01T22:40:43.305Z,13.01
2023-11-01T22:42:46.253Z,12.86
2023-11-01T22:44:49.442Z,12.84
2023-11-01T22:46:51.388Z,12.86
2023-11-01T22:48:53.079Z,12.86
2023-11-01T22:50:54.847Z,12.81
2023-11-01T22:52:56.864Z,12.74
2023-11-01T22:54:58.647Z,12.75
2023-11-01T22:57:00.697Z,12.85
2023-11-01T22:59:02.611Z,12.98
2023-11-01T23:01:05.035Z,13.02
2023-11-01T23:03:07.330Z,13.06
2023-11-01T23:05:10.068Z,13.09
2023-11-01T23:07:11.897Z,13.04
2023-11-01T23:09:14.099Z,13.03
2023-11-01T23:11:16.232Z,13.01
2023-11-01T23:13:18.348Z,13.02
2023-11-01T23:15:20.083Z,13.04
2023-11-01T23:17:21.890Z,12.98
2023-11-01T23:19:25.727Z,12.87
2023-11-01T23:21:29.219Z,12.49
2023-11-01T23:23:32.128Z,12.20
2023-11-01T23:25:35.786Z,11.95
2023-11-01T23:27:37.529Z,11.68
2023-11-01T23:29:40.110Z,11.46
2023-11-01T23:31:46.680Z,11.38
2023-11-01T23:33:48.813Z,10.96
2023-11-01T23:35:53.305Z,10.75
2023-11-01T23:37:56.339Z,10.59
2023-11-01T23:39:57.944Z,10.45
2023-11-01T23:41:59.959Z,10.38
2023-11-01T23:44:03.670Z,10.54
2023-11-01T23:46:17.535Z,10.64
2023-11-01T23:48:21.129Z,10.94
2023-11-01T23:50:47.447Z,11.22
2023-11-01T23:52:49.723Z,11.44
2023-11-01T23:54:53.530Z,11.03
2023-11-01T23:56:55.325Z,11.16
2023-11-01T23:58:57.032Z,11.36
